sensor_id;sensor_type;location;lat;lon;timestamp;temperature;humidity
54431;DHT22;40342;52.998;5.862;2022-11-13T00:03:39;6.60;99.90
54431;DHT22;40342;52.998;5.862;2022-11-13T00:06:05;6.60;99.90
54431;DHT22;40342;52.998;5.862;2022-11-13T00:08:31;6.60;99.90
54431;DHT22;40342;52.998;5.862;2022-11-13T00:11:05;6.60;99.90
54431;DHT22;40342;52.998;5.862;2022-11-13T00:13:32;6.60;99.90
54431;DHT22;40342;52.998;5.862;2022-11-13T00:16:03;6.60;99.90
54431;DHT22;40342;52.998;5.862;2022-11-13T00:18:29;6.60;99.90
54431;DHT22;40342;52.998;5.862;2022-11-13T00:21:13;6.60;99.90
54431;DHT22;40342;52.998;5.862;2022-11-13T00:23:39;6.60;99.90
54431;DHT22;40342;52.998;5.862;2022-11-13T00:26:25;6.60;99.90
54431;DHT22;40342;52.998;5.862;2022-11-13T00:28:59;6.60;99.90
54431;DHT22;40342;52.998;5.862;2022-11-13T00:31:26;6.60;99.90
54431;DHT22;40342;52.998;5.862;2022-11-13T00:33:52;6.60;99.90
54431;DHT22;40342;52.998;5.862;2022-11-13T00:36:23;6.60;99.90
54431;DHT22;40342;52.998;5.862;2022-11-13T00:38:49;6.60;99.90
54431;DHT22;40342;52.998;5.862;2022-11-13T00:41:15;6.60;99.90
54431;DHT22;40342;52.998;5.862;2022-11-13T00:43:41;6.60;99.90
54431;DHT22;40342;52.998;5.862;2022-11-13T00:46:07;6.60;99.90
54431;DHT22;40342;52.998;5.862;2022-11-13T00:48:33;6.60;99.90
54431;DHT22;40342;52.998;5.862;2022-11-13T00:50:59;6.60;99.90
54431;DHT22;40342;52.998;5.862;2022-11-13T00:53:25;6.60;99.90
54431;DHT22;40342;52.998;5.862;2022-11-13T00:55:51;6.60;99.90
54431;DHT22;40342;52.998;5.862;2022-11-13T00:58:16;6.60;99.90
54431;DHT22;40342;52.998;5.862;2022-11-13T01:00:44;6.60;99.90
54431;DHT22;40342;52.998;5.862;2022-11-13T01:03:10;6.60;99.90
54431;DHT22;40342;52.998;5.862;2022-11-13T01:05:37;6.60;99.90
54431;DHT22;40342;52.998;5.862;2022-11-13T01:08:03;6.60;99.90
54431;DHT22;40342;52.998;5.862;2022-11-13T01:10:29;6.60;99.90
54431;DHT22;40342;52.998;5.862;2022-11-13T01:12:55;6.60;99.90
54431;DHT22;40342;52.998;5.862;2022-11-13T01:15:20;6.60;99.90
54431;DHT22;40342;52.998;5.862;2022-11-13T01:17:46;6.60;99.90
54431;DHT22;40342;52.998;5.862;2022-11-13T01:20:12;6.60;99.90
54431;DHT22;40342;52.998;5.862;2022-11-13T01:22:37;6.60;99.90
54431;DHT22;40342;52.998;5.862;2022-11-13T01:25:03;6.60;99.90
54431;DHT22;40342;52.998;5.862;2022-11-13T01:27:29;6.60;99.90
54431;DHT22;40342;52.998;5.862;2022-11-13T01:29:55;6.60;99.90
54431;DHT22;40342;52.998;5.862;2022-11-13T01:32:20;6.60;99.90
54431;DHT22;40342;52.998;5.862;2022-11-13T01:34:46;6.60;99.90
54431;DHT22;40342;52.998;5.862;2022-11-13T01:37:11;6.60;99.90
54431;DHT22;40342;52.998;5.862;2022-11-13T01:39:37;6.60;99.90
54431;DHT22;40342;52.998;5.862;2022-11-13T01:42:02;6.60;99.90
54431;DHT22;40342;52.998;5.862;2022-11-13T01:47:13;6.60;99.90
54431;DHT22;40342;52.998;5.862;2022-11-13T01:49:40;6.50;99.90
54431;DHT22;40342;52.998;5.862;2022-11-13T01:52:10;6.50;99.90
54431;DHT22;40342;52.998;5.862;2022-11-13T01:54:40;6.50;99.90
54431;DHT22;40342;52.998;5.862;2022-11-13T01:57:07;6.50;99.90
54431;DHT22;40342;52.998;5.862;2022-11-13T01:59:37;6.50;99.90
54431;DHT22;40342;52.998;5.862;2022-11-13T02:02:04;6.50;99.90
54431;DHT22;40342;52.998;5.862;2022-11-13T02:04:30;6.50;99.90
54431;DHT22;40342;52.998;5.862;2022-11-13T02:07:02;6.50;99.90
54431;DHT22;40342;52.998;5.862;2022-11-13T02:09:33;6.50;99.90
54431;DHT22;40342;52.998;5.862;2022-11-13T02:12:00;6.50;99.90
54431;DHT22;40342;52.998;5.862;2022-11-13T02:14:27;6.40;99.90
54431;DHT22;40342;52.998;5.862;2022-11-13T02:16:57;6.50;99.90
54431;DHT22;40342;52.998;5.862;2022-11-13T02:19:29;6.50;99.90
54431;DHT22;40342;52.998;5.862;2022-11-13T02:21:58;6.50;99.90
54431;DHT22;40342;52.998;5.862;2022-11-13T02:24:32;6.50;99.90
54431;DHT22;40342;52.998;5.862;2022-11-13T02:27:02;6.50;99.90
54431;DHT22;40342;52.998;5.862;2022-11-13T02:29:28;6.50;99.90
54431;DHT22;40342;52.998;5.862;2022-11-13T02:31:54;6.50;99.90
54431;DHT22;40342;52.998;5.862;2022-11-13T02:34:20;6.50;99.90
54431;DHT22;40342;52.998;5.862;2022-11-13T02:36:46;6.50;99.90
54431;DHT22;40342;52.998;5.862;2022-11-13T02:39:12;6.50;99.90
54431;DHT22;40342;52.998;5.862;2022-11-13T02:41:37;6.60;99.90
54431;DHT22;40342;52.998;5.862;2022-11-13T02:44:06;6.60;99.90
54431;DHT22;40342;52.998;5.862;2022-11-13T02:46:32;6.60;99.90
54431;DHT22;40342;52.998;5.862;2022-11-13T02:48:58;6.60;99.90
54431;DHT22;40342;52.998;5.862;2022-11-13T02:51:23;6.60;99.90
54431;DHT22;40342;52.998;5.862;2022-11-13T02:53:49;6.60;99.90
54431;DHT22;40342;52.998;5.862;2022-11-13T02:56:14;6.60;99.90
54431;DHT22;40342;52.998;5.862;2022-11-13T02:58:40;6.60;99.90
54431;DHT22;40342;52.998;5.862;2022-11-13T03:01:06;6.60;99.90
54431;DHT22;40342;52.998;5.862;2022-11-13T03:03:32;6.60;99.90
54431;DHT22;40342;52.998;5.862;2022-11-13T03:05:58;6.60;99.90
54431;DHT22;40342;52.998;5.862;2022-11-13T03:08:24;6.60;99.90
54431;DHT22;40342;52.998;5.862;2022-11-13T03:10:51;6.60;99.90
54431;DHT22;40342;52.998;5.862;2022-11-13T03:13:16;6.60;99.90
54431;DHT22;40342;52.998;5.862;2022-11-13T03:15:42;6.50;99.90
54431;DHT22;40342;52.998;5.862;2022-11-13T03:18:08;6.60;99.90
54431;DHT22;40342;52.998;5.862;2022-11-13T03:20:37;6.50;99.90
54431;DHT22;40342;52.998;5.862;2022-11-13T03:23:03;6.60;99.90
54431;DHT22;40342;52.998;5.862;2022-11-13T03:25:29;6.50;99.90
54431;DHT22;40342;52.998;5.862;2022-11-13T03:27:55;6.50;99.90
54431;DHT22;40342;52.998;5.862;2022-11-13T03:30:21;6.50;99.90
54431;DHT22;40342;52.998;5.862;2022-11-13T03:32:47;6.50;99.90
54431;DHT22;40342;52.998;5.862;2022-11-13T03:35:12;6.50;99.90
54431;DHT22;40342;52.998;5.862;2022-11-13T03:37:38;6.50;99.90
54431;DHT22;40342;52.998;5.862;2022-11-13T03:40:04;6.50;99.90
54431;DHT22;40342;52.998;5.862;2022-11-13T03:42:30;6.50;99.90
54431;DHT22;40342;52.998;5.862;2022-11-13T03:44:55;6.40;99.90
54431;DHT22;40342;52.998;5.862;2022-11-13T03:47:21;6.50;99.90
54431;DHT22;40342;52.998;5.862;2022-11-13T03:49:47;6.50;99.90
54431;DHT22;40342;52.998;5.862;2022-11-13T03:52:13;6.50;99.90
54431;DHT22;40342;52.998;5.862;2022-11-13T03:54:38;6.50;99.90
54431;DHT22;40342;52.998;5.862;2022-11-13T03:57:04;6.40;99.90
54431;DHT22;40342;52.998;5.862;2022-11-13T03:59:29;6.40;99.90
54431;DHT22;40342;52.998;5.862;2022-11-13T04:01:55;6.40;99.90
54431;DHT22;40342;52.998;5.862;2022-11-13T04:04:20;6.40;99.90
54431;DHT22;40342;52.998;5.862;2022-11-13T04:06:46;6.40;99.90
54431;DHT22;40342;52.998;5.862;2022-11-13T04:09:12;6.40;99.90
54431;DHT22;40342;52.998;5.862;2022-11-13T04:11:37;6.50;99.90
54431;DHT22;40342;52.998;5.862;2022-11-13T04:14:03;6.50;99.90
54431;DHT22;40342;52.998;5.862;2022-11-13T04:16:28;6.50;99.90
54431;DHT22;40342;52.998;5.862;2022-11-13T04:18:54;6.50;99.90
54431;DHT22;40342;52.998;5.862;2022-11-13T04:21:19;6.50;99.90
54431;DHT22;40342;52.998;5.862;2022-11-13T04:23:45;6.50;99.90
54431;DHT22;40342;52.998;5.862;2022-11-13T04:26:11;6.50;99.90
54431;DHT22;40342;52.998;5.862;2022-11-13T04:28:36;6.60;99.90
54431;DHT22;40342;52.998;5.862;2022-11-13T04:31:02;6.50;99.90
54431;DHT22;40342;52.998;5.862;2022-11-13T04:33:27;6.60;99.90
54431;DHT22;40342;52.998;5.862;2022-11-13T04:35:53;6.60;99.90
54431;DHT22;40342;52.998;5.862;2022-11-13T04:38:19;6.60;99.90
54431;DHT22;40342;52.998;5.862;2022-11-13T04:40:48;6.60;99.90
54431;DHT22;40342;52.998;5.862;2022-11-13T04:43:13;6.60;99.90
54431;DHT22;40342;52.998;5.862;2022-11-13T04:45:39;6.60;99.90
54431;DHT22;40342;52.998;5.862;2022-11-13T04:48:04;6.60;99.90
54431;DHT22;40342;52.998;5.862;2022-11-13T04:50:30;6.60;99.90
54431;DHT22;40342;52.998;5.862;2022-11-13T04:52:56;6.60;99.90
54431;DHT22;40342;52.998;5.862;2022-11-13T04:55:22;6.60;99.90
54431;DHT22;40342;52.998;5.862;2022-11-13T04:57:47;6.60;99.90
54431;DHT22;40342;52.998;5.862;2022-11-13T05:00:15;6.60;99.90
54431;DHT22;40342;52.998;5.862;2022-11-13T05:02:42;6.50;99.90
54431;DHT22;40342;52.998;5.862;2022-11-13T05:05:07;6.50;99.90
54431;DHT22;40342;52.998;5.862;2022-11-13T05:07:33;6.50;99.90
54431;DHT22;40342;52.998;5.862;2022-11-13T05:09:59;6.50;99.90
54431;DHT22;40342;52.998;5.862;2022-11-13T05:12:24;6.50;99.90
54431;DHT22;40342;52.998;5.862;2022-11-13T05:14:50;6.50;99.90
54431;DHT22;40342;52.998;5.862;2022-11-13T05:17:15;6.50;99.90
54431;DHT22;40342;52.998;5.862;2022-11-13T05:19:41;6.50;99.90
54431;DHT22;40342;52.998;5.862;2022-11-13T05:22:07;6.50;99.90
54431;DHT22;40342;52.998;5.862;2022-11-13T05:24:33;6.50;99.90
54431;DHT22;40342;52.998;5.862;2022-11-13T05:26:58;6.50;99.90
54431;DHT22;40342;52.998;5.862;2022-11-13T05:29:24;6.40;99.90
54431;DHT22;40342;52.998;5.862;2022-11-13T05:31:50;6.40;99.90
54431;DHT22;40342;52.998;5.862;2022-11-13T05:34:15;6.40;99.90
54431;DHT22;40342;52.998;5.862;2022-11-13T05:36:41;6.40;99.90
54431;DHT22;40342;52.998;5.862;2022-11-13T05:39:06;6.40;99.90
54431;DHT22;40342;52.998;5.862;2022-11-13T05:41:32;6.30;99.90
54431;DHT22;40342;52.998;5.862;2022-11-13T05:43:58;6.30;99.90
54431;DHT22;40342;52.998;5.862;2022-11-13T05:46:26;6.40;99.90
54431;DHT22;40342;52.998;5.862;2022-11-13T05:49:02;6.30;99.90
54431;DHT22;40342;52.998;5.862;2022-11-13T05:51:30;6.30;99.90
54431;DHT22;40342;52.998;5.862;2022-11-13T05:53:56;6.30;99.90
54431;DHT22;40342;52.998;5.862;2022-11-13T05:56:31;6.30;99.90
54431;DHT22;40342;52.998;5.862;2022-11-13T05:58:58;6.20;99.90
54431;DHT22;40342;52.998;5.862;2022-11-13T06:01:26;6.20;99.90
54431;DHT22;40342;52.998;5.862;2022-11-13T06:03:54;6.20;99.90
54431;DHT22;40342;52.998;5.862;2022-11-13T06:06:21;6.20;99.90
54431;DHT22;40342;52.998;5.862;2022-11-13T06:08:48;6.20;99.90
54431;DHT22;40342;52.998;5.862;2022-11-13T06:11:18;6.20;99.90
54431;DHT22;40342;52.998;5.862;2022-11-13T06:13:45;6.20;99.90
54431;DHT22;40342;52.998;5.862;2022-11-13T06:16:23;6.20;99.90
54431;DHT22;40342;52.998;5.862;2022-11-13T06:18:49;6.20;99.90
54431;DHT22;40342;52.998;5.862;2022-11-13T06:21:20;6.20;99.90
54431;DHT22;40342;52.998;5.862;2022-11-13T06:23:46;6.20;99.90
54431;DHT22;40342;52.998;5.862;2022-11-13T06:26:21;6.20;99.90
54431;DHT22;40342;52.998;5.862;2022-11-13T06:28:47;6.20;99.90
54431;DHT22;40342;52.998;5.862;2022-11-13T06:31:16;6.20;99.90
54431;DHT22;40342;52.998;5.862;2022-11-13T06:33:42;6.20;99.90
54431;DHT22;40342;52.998;5.862;2022-11-13T06:36:22;6.20;99.90
54431;DHT22;40342;52.998;5.862;2022-11-13T06:38:48;6.20;99.90
54431;DHT22;40342;52.998;5.862;2022-11-13T06:41:16;6.20;99.90
54431;DHT22;40342;52.998;5.862;2022-11-13T06:43:43;6.20;99.90
54431;DHT22;40342;52.998;5.862;2022-11-13T06:46:17;6.20;99.90
54431;DHT22;40342;52.998;5.862;2022-11-13T06:48:43;6.20;99.90
54431;DHT22;40342;52.998;5.862;2022-11-13T06:51:12;6.10;99.90
54431;DHT22;40342;52.998;5.862;2022-11-13T06:53:38;6.10;99.90
54431;DHT22;40342;52.998;5.862;2022-11-13T06:56:05;6.10;99.90
54431;DHT22;40342;52.998;5.862;2022-11-13T06:58:31;6.00;99.90
54431;DHT22;40342;52.998;5.862;2022-11-13T07:00:57;6.00;99.90
54431;DHT22;40342;52.998;5.862;2022-11-13T07:03:24;6.00;99.90
54431;DHT22;40342;52.998;5.862;2022-11-13T07:05:51;5.90;99.90
54431;DHT22;40342;52.998;5.862;2022-11-13T07:08:17;5.90;99.90
54431;DHT22;40342;52.998;5.862;2022-11-13T07:10:50;5.90;99.90
54431;DHT22;40342;52.998;5.862;2022-11-13T07:13:16;5.80;99.90
54431;DHT22;40342;52.998;5.862;2022-11-13T07:15:42;5.80;99.90
54431;DHT22;40342;52.998;5.862;2022-11-13T07:18:07;5.80;99.90
54431;DHT22;40342;52.998;5.862;2022-11-13T07:20:33;5.80;99.90
54431;DHT22;40342;52.998;5.862;2022-11-13T07:23:01;5.70;99.90
54431;DHT22;40342;52.998;5.862;2022-11-13T07:25:27;5.70;99.90
54431;DHT22;40342;52.998;5.862;2022-11-13T07:27:53;5.70;99.90
54431;DHT22;40342;52.998;5.862;2022-11-13T07:30:19;5.70;99.90
54431;DHT22;40342;52.998;5.862;2022-11-13T07:32:45;5.70;99.90
54431;DHT22;40342;52.998;5.862;2022-11-13T07:35:11;5.70;99.90
54431;DHT22;40342;52.998;5.862;2022-11-13T07:37:36;5.70;99.90
54431;DHT22;40342;52.998;5.862;2022-11-13T07:40:03;5.70;99.90
54431;DHT22;40342;52.998;5.862;2022-11-13T07:42:29;5.80;99.90
54431;DHT22;40342;52.998;5.862;2022-11-13T07:44:54;5.80;99.90
54431;DHT22;40342;52.998;5.862;2022-11-13T07:47:20;5.80;99.90
54431;DHT22;40342;52.998;5.862;2022-11-13T07:49:45;5.90;99.90
54431;DHT22;40342;52.998;5.862;2022-11-13T07:52:11;6.10;99.90
54431;DHT22;40342;52.998;5.862;2022-11-13T07:54:36;5.80;99.90
54431;DHT22;40342;52.998;5.862;2022-11-13T07:57:02;5.90;99.90
54431;DHT22;40342;52.998;5.862;2022-11-13T07:59:28;5.90;99.90
54431;DHT22;40342;52.998;5.862;2022-11-13T08:01:53;5.90;99.90
54431;DHT22;40342;52.998;5.862;2022-11-13T08:04:19;6.00;99.90
54431;DHT22;40342;52.998;5.862;2022-11-13T08:06:44;6.10;99.90
54431;DHT22;40342;52.998;5.862;2022-11-13T08:09:10;6.00;99.90
54431;DHT22;40342;52.998;5.862;2022-11-13T08:11:35;6.10;99.90
54431;DHT22;40342;52.998;5.862;2022-11-13T08:14:01;6.20;99.90
54431;DHT22;40342;52.998;5.862;2022-11-13T08:16:27;6.20;99.90
54431;DHT22;40342;52.998;5.862;2022-11-13T08:18:52;6.20;99.90
54431;DHT22;40342;52.998;5.862;2022-11-13T08:21:18;6.30;99.90
54431;DHT22;40342;52.998;5.862;2022-11-13T08:23:46;6.30;99.90
54431;DHT22;40342;52.998;5.862;2022-11-13T08:26:12;6.40;99.90
54431;DHT22;40342;52.998;5.862;2022-11-13T08:28:38;6.40;99.90
54431;DHT22;40342;52.998;5.862;2022-11-13T08:31:09;6.40;99.90
54431;DHT22;40342;52.998;5.862;2022-11-13T08:33:35;6.50;99.90
54431;DHT22;40342;52.998;5.862;2022-11-13T08:36:01;6.50;99.90
54431;DHT22;40342;52.998;5.862;2022-11-13T08:38:26;6.60;99.90
54431;DHT22;40342;52.998;5.862;2022-11-13T08:40:56;6.60;99.90
54431;DHT22;40342;52.998;5.862;2022-11-13T08:43:22;6.60;99.90
54431;DHT22;40342;52.998;5.862;2022-11-13T08:45:47;6.60;99.90
54431;DHT22;40342;52.998;5.862;2022-11-13T08:48:13;6.70;99.90
54431;DHT22;40342;52.998;5.862;2022-11-13T08:50:39;6.70;99.90
54431;DHT22;40342;52.998;5.862;2022-11-13T08:53:05;6.80;99.90
54431;DHT22;40342;52.998;5.862;2022-11-13T08:55:32;6.80;99.90
54431;DHT22;40342;52.998;5.862;2022-11-13T08:57:59;6.90;99.90
54431;DHT22;40342;52.998;5.862;2022-11-13T09:00:27;6.90;99.90
54431;DHT22;40342;52.998;5.862;2022-11-13T09:02:54;6.90;99.90
54431;DHT22;40342;52.998;5.862;2022-11-13T09:05:20;7.00;99.90
54431;DHT22;40342;52.998;5.862;2022-11-13T09:07:46;7.00;99.90
54431;DHT22;40342;52.998;5.862;2022-11-13T09:10:12;7.10;99.90
54431;DHT22;40342;52.998;5.862;2022-11-13T09:12:37;7.10;99.90
54431;DHT22;40342;52.998;5.862;2022-11-13T09:15:03;7.20;99.90
54431;DHT22;40342;52.998;5.862;2022-11-13T09:17:29;7.20;99.90
54431;DHT22;40342;52.998;5.862;2022-11-13T09:19:55;7.30;99.90
54431;DHT22;40342;52.998;5.862;2022-11-13T09:22:21;7.40;99.90
54431;DHT22;40342;52.998;5.862;2022-11-13T09:24:47;7.50;99.90
54431;DHT22;40342;52.998;5.862;2022-11-13T09:27:13;7.80;99.90
54431;DHT22;40342;52.998;5.862;2022-11-13T09:29:38;8.10;99.90
54431;DHT22;40342;52.998;5.862;2022-11-13T09:32:04;8.50;99.90
54431;DHT22;40342;52.998;5.862;2022-11-13T09:34:30;8.90;99.90
54431;DHT22;40342;52.998;5.862;2022-11-13T09:36:55;9.20;99.90
54431;DHT22;40342;52.998;5.862;2022-11-13T09:39:21;9.50;99.90
54431;DHT22;40342;52.998;5.862;2022-11-13T09:41:51;9.90;99.90
54431;DHT22;40342;52.998;5.862;2022-11-13T09:44:33;10.20;99.90
54431;DHT22;40342;52.998;5.862;2022-11-13T09:47:11;10.50;99.90
54431;DHT22;40342;52.998;5.862;2022-11-13T09:49:45;10.90;99.90
54431;DHT22;40342;52.998;5.862;2022-11-13T09:52:23;11.20;99.90
54431;DHT22;40342;52.998;5.862;2022-11-13T09:54:51;11.50;99.90
54431;DHT22;40342;52.998;5.862;2022-11-13T10:00:16;12.00;99.90
54431;DHT22;40342;52.998;5.862;2022-11-13T10:05:53;12.20;99.90
54431;DHT22;40342;52.998;5.862;2022-11-13T10:08:35;12.30;99.90
54431;DHT22;40342;52.998;5.862;2022-11-13T10:13:56;12.50;99.90
54431;DHT22;40342;52.998;5.862;2022-11-13T10:16:32;12.60;99.90
54431;DHT22;40342;52.998;5.862;2022-11-13T10:19:16;12.70;99.90
54431;DHT22;40342;52.998;5.862;2022-11-13T10:21:47;12.80;99.90
54431;DHT22;40342;52.998;5.862;2022-11-13T10:24:23;12.90;99.90
54431;DHT22;40342;52.998;5.862;2022-11-13T10:26:49;12.90;99.90
54431;DHT22;40342;52.998;5.862;2022-11-13T10:29:17;13.00;99.90
54431;DHT22;40342;52.998;5.862;2022-11-13T10:31:47;13.00;99.90
54431;DHT22;40342;52.998;5.862;2022-11-13T10:34:13;13.00;99.90
54431;DHT22;40342;52.998;5.862;2022-11-13T10:39:41;13.10;99.90
54431;DHT22;40342;52.998;5.862;2022-11-13T10:42:21;13.20;99.90
54431;DHT22;40342;52.998;5.862;2022-11-13T10:44:53;13.30;99.90
54431;DHT22;40342;52.998;5.862;2022-11-13T10:47:21;13.30;99.90
54431;DHT22;40342;52.998;5.862;2022-11-13T10:49:48;13.40;99.90
54431;DHT22;40342;52.998;5.862;2022-11-13T10:54:47;13.50;99.90
54431;DHT22;40342;52.998;5.862;2022-11-13T10:59:53;13.60;99.90
54431;DHT22;40342;52.998;5.862;2022-11-13T11:02:20;13.70;99.90
54431;DHT22;40342;52.998;5.862;2022-11-13T11:04:47;13.80;99.90
54431;DHT22;40342;52.998;5.862;2022-11-13T11:07:22;13.80;99.90
54431;DHT22;40342;52.998;5.862;2022-11-13T11:09:49;13.80;99.90
54431;DHT22;40342;52.998;5.862;2022-11-13T11:12:21;13.90;99.90
54431;DHT22;40342;52.998;5.862;2022-11-13T11:17:23;14.00;99.90
54431;DHT22;40342;52.998;5.862;2022-11-13T11:20:01;14.10;99.90
54431;DHT22;40342;52.998;5.862;2022-11-13T11:22:29;14.10;99.90
54431;DHT22;40342;52.998;5.862;2022-11-13T11:25:05;14.10;99.90
54431;DHT22;40342;52.998;5.862;2022-11-13T11:27:36;14.10;99.90
54431;DHT22;40342;52.998;5.862;2022-11-13T11:30:05;14.10;99.90
54431;DHT22;40342;52.998;5.862;2022-11-13T11:32:38;14.10;99.90
54431;DHT22;40342;52.998;5.862;2022-11-13T11:37:52;14.20;99.90
54431;DHT22;40342;52.998;5.862;2022-11-13T11:40:35;14.10;99.90
54431;DHT22;40342;52.998;5.862;2022-11-13T11:45:44;14.10;99.90
54431;DHT22;40342;52.998;5.862;2022-11-13T11:48:31;14.10;99.90
54431;DHT22;40342;52.998;5.862;2022-11-13T11:51:06;14.10;99.90
54431;DHT22;40342;52.998;5.862;2022-11-13T11:53:49;14.00;99.90
54431;DHT22;40342;52.998;5.862;2022-11-13T11:56:28;14.00;99.90
54431;DHT22;40342;52.998;5.862;2022-11-13T12:05:38;13.90;99.90
54431;DHT22;40342;52.998;5.862;2022-11-13T12:11:06;13.80;99.90
54431;DHT22;40342;52.998;5.862;2022-11-13T12:14:03;13.80;99.90
54431;DHT22;40342;52.998;5.862;2022-11-13T12:17:05;13.80;99.90
54431;DHT22;40342;52.998;5.862;2022-11-13T12:27:42;13.70;99.90
54431;DHT22;40342;52.998;5.862;2022-11-13T12:30:16;13.70;99.90
54431;DHT22;40342;52.998;5.862;2022-11-13T12:35:29;13.70;99.90
54431;DHT22;40342;52.998;5.862;2022-11-13T12:37:57;13.70;99.90
54431;DHT22;40342;52.998;5.862;2022-11-13T12:40:35;13.80;99.90
54431;DHT22;40342;52.998;5.862;2022-11-13T12:43:27;13.90;99.90
54431;DHT22;40342;52.998;5.862;2022-11-13T12:46:05;14.20;99.90
54431;DHT22;40342;52.998;5.862;2022-11-13T12:48:39;14.30;99.90
54431;DHT22;40342;52.998;5.862;2022-11-13T12:51:06;14.40;99.90
54431;DHT22;40342;52.998;5.862;2022-11-13T13:01:27;15.10;99.90
54431;DHT22;40342;52.998;5.862;2022-11-13T13:04:24;15.20;99.90
54431;DHT22;40342;52.998;5.862;2022-11-13T13:15:21;15.70;99.90
54431;DHT22;40342;52.998;5.862;2022-11-13T13:18:05;15.80;99.90
54431;DHT22;40342;52.998;5.862;2022-11-13T13:20:36;15.90;99.90
54431;DHT22;40342;52.998;5.862;2022-11-13T13:23:02;15.90;99.90
54431;DHT22;40342;52.998;5.862;2022-11-13T13:25:35;15.80;99.90
54431;DHT22;40342;52.998;5.862;2022-11-13T13:31:00;15.50;99.90
54431;DHT22;40342;52.998;5.862;2022-11-13T13:42:08;15.10;99.90
54431;DHT22;40342;52.998;5.862;2022-11-13T13:47:26;15.10;99.90
54431;DHT22;40342;52.998;5.862;2022-11-13T13:49:53;15.10;99.90
54431;DHT22;40342;52.998;5.862;2022-11-13T13:52:25;15.20;99.90
54431;DHT22;40342;52.998;5.862;2022-11-13T13:54:52;15.20;99.90
54431;DHT22;40342;52.998;5.862;2022-11-13T13:57:18;15.30;99.90
54431;DHT22;40342;52.998;5.862;2022-11-13T13:59:43;15.30;99.90
54431;DHT22;40342;52.998;5.862;2022-11-13T14:02:15;15.30;99.90
54431;DHT22;40342;52.998;5.862;2022-11-13T14:04:46;15.30;99.90
54431;DHT22;40342;52.998;5.862;2022-11-13T14:07:29;15.20;99.90
54431;DHT22;40342;52.998;5.862;2022-11-13T14:10:25;15.10;99.90
54431;DHT22;40342;52.998;5.862;2022-11-13T14:12:52;15.00;99.90
54431;DHT22;40342;52.998;5.862;2022-11-13T14:15:28;15.00;99.90
54431;DHT22;40342;52.998;5.862;2022-11-13T14:18:13;15.10;99.90
54431;DHT22;40342;52.998;5.862;2022-11-13T14:20:48;15.10;99.90
54431;DHT22;40342;52.998;5.862;2022-11-13T14:23:23;15.10;99.90
54431;DHT22;40342;52.998;5.862;2022-11-13T14:25:49;15.20;99.90
54431;DHT22;40342;52.998;5.862;2022-11-13T14:28:25;15.40;99.90
54431;DHT22;40342;52.998;5.862;2022-11-13T14:31:03;15.50;99.90
54431;DHT22;40342;52.998;5.862;2022-11-13T14:33:49;15.70;99.90
54431;DHT22;40342;52.998;5.862;2022-11-13T14:36:23;15.80;99.90
54431;DHT22;40342;52.998;5.862;2022-11-13T14:38:50;15.90;99.90
54431;DHT22;40342;52.998;5.862;2022-11-13T14:43:48;16.00;99.90
54431;DHT22;40342;52.998;5.862;2022-11-13T14:46:56;16.10;99.90
54431;DHT22;40342;52.998;5.862;2022-11-13T14:49:32;16.20;99.90
54431;DHT22;40342;52.998;5.862;2022-11-13T14:51:58;16.10;99.90
54431;DHT22;40342;52.998;5.862;2022-11-13T14:54:35;16.20;99.90
54431;DHT22;40342;52.998;5.862;2022-11-13T14:57:12;16.20;99.90
54431;DHT22;40342;52.998;5.862;2022-11-13T14:59:38;16.20;99.90
54431;DHT22;40342;52.998;5.862;2022-11-13T15:02:09;16.20;99.90
54431;DHT22;40342;52.998;5.862;2022-11-13T15:04:35;16.40;99.90
54431;DHT22;40342;52.998;5.862;2022-11-13T15:07:02;16.50;99.90
54431;DHT22;40342;52.998;5.862;2022-11-13T15:09:29;16.70;99.90
54431;DHT22;40342;52.998;5.862;2022-11-13T15:11:55;16.70;99.90
54431;DHT22;40342;52.998;5.862;2022-11-13T15:14:21;16.60;99.90
54431;DHT22;40342;52.998;5.862;2022-11-13T15:16:49;16.50;99.90
54431;DHT22;40342;52.998;5.862;2022-11-13T15:19:30;16.50;99.90
54431;DHT22;40342;52.998;5.862;2022-11-13T15:21:59;16.50;99.90
54431;DHT22;40342;52.998;5.862;2022-11-13T15:24:24;16.50;99.90
54431;DHT22;40342;52.998;5.862;2022-11-13T15:26:50;16.40;99.90
54431;DHT22;40342;52.998;5.862;2022-11-13T15:29:15;16.20;99.90
54431;DHT22;40342;52.998;5.862;2022-11-13T15:31:43;16.00;99.90
54431;DHT22;40342;52.998;5.862;2022-11-13T15:34:10;15.70;99.90
54431;DHT22;40342;52.998;5.862;2022-11-13T15:36:36;15.50;99.90
54431;DHT22;40342;52.998;5.862;2022-11-13T15:39:02;15.20;99.90
54431;DHT22;40342;52.998;5.862;2022-11-13T15:41:28;15.00;99.90
54431;DHT22;40342;52.998;5.862;2022-11-13T15:43:55;14.80;99.90
54431;DHT22;40342;52.998;5.862;2022-11-13T15:46:22;14.50;99.90
54431;DHT22;40342;52.998;5.862;2022-11-13T15:48:49;14.30;99.90
54431;DHT22;40342;52.998;5.862;2022-11-13T15:51:31;14.10;99.90
54431;DHT22;40342;52.998;5.862;2022-11-13T15:54:02;13.80;99.90
54431;DHT22;40342;52.998;5.862;2022-11-13T15:56:30;13.70;99.90
54431;DHT22;40342;52.998;5.862;2022-11-13T15:58:55;13.40;99.90
54431;DHT22;40342;52.998;5.862;2022-11-13T16:01:21;13.20;99.90
54431;DHT22;40342;52.998;5.862;2022-11-13T16:03:47;13.10;99.90
54431;DHT22;40342;52.998;5.862;2022-11-13T16:06:19;12.90;99.90
54431;DHT22;40342;52.998;5.862;2022-11-13T16:08:45;12.80;99.90
54431;DHT22;40342;52.998;5.862;2022-11-13T16:11:15;12.60;99.90
54431;DHT22;40342;52.998;5.862;2022-11-13T16:13:41;12.60;99.90
54431;DHT22;40342;52.998;5.862;2022-11-13T16:18:40;12.30;99.90
54431;DHT22;40342;52.998;5.862;2022-11-13T16:21:09;12.20;99.90
54431;DHT22;40342;52.998;5.862;2022-11-13T16:23:34;12.10;99.90
54431;DHT22;40342;52.998;5.862;2022-11-13T16:26:00;12.00;99.90
54431;DHT22;40342;52.998;5.862;2022-11-13T16:28:29;11.90;99.90
54431;DHT22;40342;52.998;5.862;2022-11-13T16:30:54;11.90;99.90
54431;DHT22;40342;52.998;5.862;2022-11-13T16:33:20;11.80;99.90
54431;DHT22;40342;52.998;5.862;2022-11-13T16:35:47;11.70;99.90
54431;DHT22;40342;52.998;5.862;2022-11-13T16:38:13;11.60;99.90
54431;DHT22;40342;52.998;5.862;2022-11-13T16:40:38;11.50;99.90
54431;DHT22;40342;52.998;5.862;2022-11-13T16:43:07;11.50;99.90
54431;DHT22;40342;52.998;5.862;2022-11-13T16:45:33;11.40;99.90
54431;DHT22;40342;52.998;5.862;2022-11-13T16:48:00;11.40;99.90
54431;DHT22;40342;52.998;5.862;2022-11-13T16:50:29;11.30;99.90
54431;DHT22;40342;52.998;5.862;2022-11-13T16:52:55;11.20;99.90
54431;DHT22;40342;52.998;5.862;2022-11-13T16:55:21;11.10;99.90
54431;DHT22;40342;52.998;5.862;2022-11-13T16:57:47;11.10;99.90
54431;DHT22;40342;52.998;5.862;2022-11-13T17:00:14;11.00;99.90
54431;DHT22;40342;52.998;5.862;2022-11-13T17:02:40;10.90;99.90
54431;DHT22;40342;52.998;5.862;2022-11-13T17:05:09;10.80;99.90
54431;DHT22;40342;52.998;5.862;2022-11-13T17:07:35;10.80;99.90
54431;DHT22;40342;52.998;5.862;2022-11-13T17:10:00;10.80;99.90
54431;DHT22;40342;52.998;5.862;2022-11-13T17:12:26;10.70;99.90
54431;DHT22;40342;52.998;5.862;2022-11-13T17:14:52;10.70;99.90